Latest Weather Observations for Fingal

IDT60801

Issued at 12:31 pm EDT Friday 27 March 2015 (issued every 30 minutes, with the page automatically refreshed every 10 minutes)

About weather observations | Map of weather stations | Latest weather observations for TAS | Other Formats
Station Details ID: 092012 Name: FINGAL (LEGGE STREET) Lat: -41.64 Lon: 147.97 Height: 237.0 m
Data from the previous 72 hours. | See also: Recent months at Fingal
Date/Time
EDT
Temp
°C
App
Temp
°C
Dew
Point
Rel
Hum
%
Delta-T
°C
Wind Press
QNH
hPa
Press
MSL
hPa
Rain
since 9 am
mm
Dir
 
Spd
km/h
Gust
km/h
Spd
kts
Gust
kts
27/12:30pm 9.9 6.1 7.5 85 1.2 WSW 17 28 9 15 - - 3.8
27/12:00pm 9.5 5.9 6.9 84 1.2 SW 15 28 8 15 - - 3.4
27/11:30am 9.4 5.4 6.7 83 1.3 SW 17 24 9 13 - - 3.0
27/11:00am 8.9 5.9 6.0 82 1.3 SW 11 19 6 10 - - 2.4
27/10:30am 8.9 5.4 5.5 79 1.6 SW 13 24 7 13 - - 1.2
27/10:00am 9.7 6.5 5.3 74 2.0 WSW 11 22 6 12 - - 0.0
27/09:30am 9.5 6.0 5.5 76 1.8 W 13 30 7 16 - - 0.0
27/09:00am 8.9 6.6 7.4 90 0.7 W 9 17 5 9 - - 1.2
27/08:30am 5.6 3.3 4.7 94 0.4 WNW 6 9 3 5 - - 1.2
27/08:00am 4.4 1.6 3.4 93 0.4 W 7 13 4 7 - - 1.2
27/07:30am 3.4 0.7 2.4 93 0.4 WSW 6 11 3 6 - - 1.2
27/07:00am 3.5 0.2 2.5 93 0.4 W 9 15 5 8 - - 1.2
27/06:30am 3.3 -0.4 2.4 94 0.4 WSW 11 15 6 8 - - 1.2
27/05:30am 3.3 0.5 2.3 93 0.4 SW 6 9 3 5 - - 1.2
27/05:00am 3.8 0.9 2.6 92 0.5 WSW 7 11 4 6 - - 1.2
27/04:30am 4.2 1.6 3.0 92 0.5 SW 6 7 3 4 - - 1.2
27/04:00am 5.1 2.1 3.9 92 0.5 W 9 19 5 10 - - 1.2
27/03:30am 4.1 1.5 3.1 93 0.4 SW 6 9 3 5 - - 1.2
27/03:00am 4.2 1.0 3.2 93 0.4 W 9 13 5 7 - - 1.2
27/02:30am 4.3 1.1 3.3 93 0.4 WSW 9 11 5 6 - - 1.0
27/02:00am 4.2 2.3 3.0 92 0.5 SE 2 6 1 3 - - 1.0
27/01:30am 4.9 2.4 3.9 93 0.4 SSE 6 9 3 5 - - 1.0
27/01:00am 5.0 2.4 4.0 93 0.4 SW 7 11 4 6 - - 1.0
27/12:30am 5.0 2.6 4.1 94 0.4 SW 6 11 3 6 - - 1.0
 
Date/Time
EDT
Temp
°C
App
Temp
°C
Dew
Point
Rel
Hum
%
Delta-T
°C
Wind Press
QNH
hPa
Press
MSL
hPa
Rain
since 9 am
mm
Dir
 
Spd
km/h
Gust
km/h
Spd
kts
Gust
kts
26/11:30pm 4.6 2.8 3.6 93 0.4 S 2 7 1 4 - - 1.0
26/11:00pm 5.0 3.6 3.8 92 0.5 CALM 0 0 0 0 - - 1.0
26/10:30pm 5.5 3.5 4.3 92 0.5 NNE 4 9 2 5 - - 1.0
26/10:00pm 5.7 3.7 4.5 92 0.5 NW 4 9 2 5 - - 1.0
26/09:30pm 5.9 4.7 4.5 91 0.6 CALM 0 0 0 0 - - 1.0
26/09:00pm 6.4 3.9 5.0 91 0.6 S 7 9 4 5 - - 1.0
26/08:30pm 7.2 5.1 5.7 90 0.7 NNE 6 9 3 5 - - 1.0
26/08:00pm 7.8 5.8 6.1 89 0.8 SSE 6 7 3 4 - - 1.0
26/07:30pm 8.8 7.3 6.8 87 0.9 N 4 7 2 4 - - 1.0
26/07:00pm 9.6 7.7 6.7 82 1.4 SE 6 9 3 5 - - 1.0
26/06:30pm 10.9 8.8 6.5 74 2.1 SSW 7 11 4 6 - - 1.0
26/06:00pm 12.5 9.6 6.3 66 3.0 NW 11 20 6 11 - - 0.0
26/05:30pm 12.9 10.1 5.3 60 3.6 W 9 13 5 7 - - 0.0
26/05:00pm 13.7 11.5 5.1 56 4.1 WSW 6 13 3 7 - - 0.0
26/04:30pm 13.7 11.2 4.8 55 4.2 WSW 7 11 4 6 - - 0.0
26/04:00pm 13.7 10.5 5.1 56 4.1 W 11 15 6 8 - - 0.0
26/03:30pm 14.2 11.8 5.3 55 4.2 WSW 7 20 4 11 - - 0.0
26/03:00pm 14.4 12.8 6.5 59 3.9 NE 4 7 2 4 - - 0.0
26/02:30pm 13.1 10.0 7.3 68 2.9 WSW 13 24 7 13 - - 0.0
26/02:00pm 14.2 11.4 7.0 62 3.6 NNE 11 17 6 9 - - 0.0
26/01:30pm 14.1 12.0 6.7 61 3.6 NNE 7 13 4 7 - - 0.0
26/01:00pm 13.4 11.5 6.5 63 3.3 WSW 6 11 3 6 - - 0.0
26/12:30pm 12.7 10.5 6.3 65 3.1 NNE 7 9 4 5 - - 0.0
26/12:00pm 12.8 10.2 6.2 64 3.2 NNW 9 13 5 7 - - 0.0
26/11:30am 13.2 9.9 6.3 63 3.3 N 13 26 7 14 - - 0.0
26/11:00am 13.6 11.3 7.4 66 3.1 NNW 9 13 5 7 - - 0.0
26/10:30am 12.3 10.4 9.0 80 1.7 W 9 15 5 8 - - 0.0
26/10:00am 11.9 10.6 10.0 88 1.0 W 7 11 4 6 - - 0.0
26/09:30am 11.2 10.1 9.8 91 0.7 NW 6 13 3 7 - - 0.0
26/09:00am 9.5 8.8 8.4 93 0.5 NNW 2 9 1 5 - - 13.0
26/08:30am 9.2 8.8 8.3 94 0.4 CALM 0 6 0 3 - - 13.0
26/08:00am 9.0 7.2 8.1 94 0.4 W 7 9 4 5 - - 13.0
26/07:30am 9.1 7.4 8.2 94 0.4 W 7 9 4 5 - - 12.8
26/07:00am 9.1 7.5 8.0 93 0.5 SW 6 9 3 5 - - 11.4
26/06:30am 9.4 7.4 8.5 94 0.4 SW 9 17 5 9 - - 8.8
26/06:00am 8.4 6.1 7.5 94 0.4 SE 9 19 5 10 - - 6.0
26/05:30am 7.8 6.3 6.7 93 0.5 ENE 4 11 2 6 - - 2.2
26/05:00am 7.2 5.9 6.0 92 0.5 NNE 2 7 1 4 - - 1.2
26/04:30am 6.9 4.8 5.7 92 0.5 SSE 6 9 3 5 - - 0.4
26/04:00am 6.6 5.2 5.4 92 0.5 ESE 2 7 1 4 - - 0.0
26/03:30am 6.2 4.7 5.0 92 0.5 E 2 6 1 3 - - 0.0
26/03:00am 5.5 3.1 4.3 92 0.5 E 6 9 3 5 - - 0.0
26/02:30am 5.4 3.0 4.2 92 0.5 ESE 6 9 3 5 - - 0.0
26/02:00am 5.0 2.3 3.7 91 0.6 NE 7 9 4 5 - - 0.0
26/01:30am 4.9 3.5 3.4 90 0.6 CALM 0 0 0 0 - - 0.0
26/01:00am 5.0 2.5 3.5 90 0.6 ENE 6 11 3 6 - - 0.0
26/12:30am 4.9 2.1 3.2 89 0.7 SSE 7 11 4 6 - - 0.0
26/12:00am 5.5 3.4 3.7 88 0.8 NE 4 9 2 5 - - 0.0
 
Date/Time
EDT
Temp
°C
App
Temp
°C
Dew
Point
Rel
Hum
%
Delta-T
°C
Wind Press
QNH
hPa
Press
MSL
hPa
Rain
since 9 am
mm
Dir
 
Spd
km/h
Gust
km/h
Spd
kts
Gust
kts
25/11:30pm 5.8 4.4 3.8 87 0.9 CALM 0 0 0 0 - - 0.0
25/11:00pm 6.7 5.5 4.5 86 1.0 CALM 0 0 0 0 - - 0.0
25/10:30pm 7.2 6.1 4.9 85 1.0 CALM 0 0 0 0 - - 0.0
25/10:00pm 8.0 5.7 5.5 84 1.1 SE 7 9 4 5 - - 0.0
25/09:30pm 8.4 6.1 4.8 78 1.6 SE 6 7 3 4 - - 0.0
25/09:00pm 10.2 8.5 6.0 75 2.0 NE 4 7 2 4 - - 0.0
25/08:30pm 12.0 9.5 6.5 69 2.6 NE 9 13 5 7 - - 0.0
25/08:00pm 12.4 10.3 6.5 67 2.8 ESE 7 11 4 6 - - 0.0
25/07:30pm 12.9 10.4 6.5 65 3.1 ENE 9 15 5 8 - - 0.0
25/07:00pm 14.0 10.9 7.1 63 3.4 NE 13 20 7 11 - - 0.0
25/06:30pm 14.8 12.4 7.1 60 3.8 NE 9 13 5 7 - - 0.0
25/06:00pm 15.9 13.2 5.8 51 4.9 N 9 15 5 8 - - 0.0
25/05:30pm 16.7 14.0 5.6 48 5.4 NNW 9 13 5 7 - - 0.0
25/05:00pm 17.0 14.9 5.6 47 5.6 N 6 13 3 7 - - 0.0
25/04:30pm 16.7 14.1 6.2 50 5.2 NNE 9 13 5 7 - - 0.0
25/04:00pm 17.3 15.1 5.3 45 5.8 NNW 6 13 3 7 - - 0.0
25/03:30pm 17.7 15.3 5.3 44 6.1 WNW 7 13 4 7 - - 0.0
25/03:00pm 17.7 15.1 6.3 47 5.7 NNW 9 19 5 10 - - 0.0
25/02:30pm 17.4 14.0 6.0 47 5.6 NW 13 19 7 10 - - 0.0
25/02:00pm 17.5 13.8 6.4 48 5.5 NW 15 19 8 10 - - 0.0
25/01:30pm 16.1 13.4 5.4 49 5.2 W 9 17 5 9 - - 0.0
25/01:00pm 16.9 14.4 6.4 50 5.2 NNW 9 13 5 7 - - 0.0
25/12:30pm 16.2 14.2 6.9 54 4.6 NNW 7 13 4 7 - - 0.0
25/12:00pm 14.9 13.2 5.7 54 4.4 WNW 4 11 2 6 - - 0.0
25/11:30am 13.8 11.5 5.7 58 3.9 ENE 7 9 4 5 - - 0.0
25/11:00am 13.9 12.0 6.5 61 3.6 SSE 6 11 3 6 - - 0.0
25/10:30am 13.4 11.8 8.0 70 2.7 N 6 9 3 5 - - 0.0
25/10:00am 12.0 11.7 8.7 80 1.7 CALM 0 0 0 0 - - 0.0
25/09:30am 10.5 10.3 8.9 90 0.8 CALM 0 0 0 0 - - 0.0
25/09:00am 7.8 5.7 6.7 93 0.5 W 7 9 4 5 - - 0.0
25/08:30am 6.4 4.7 5.7 95 0.3 W 4 7 2 4 - - 0.0
25/08:00am 5.9 4.8 5.0 94 0.4 CALM 0 0 0 0 - - 0.0
25/07:30am 5.4 4.2 4.5 94 0.4 CALM 0 0 0 0 - - 0.0
25/07:00am 5.5 3.5 4.6 94 0.4 N 4 7 2 4 - - 0.0
25/06:30am 5.6 4.4 4.7 94 0.4 CALM 0 0 0 0 - - 0.0
25/06:00am 5.8 4.7 4.9 94 0.4 CALM 0 0 0 0 - - 0.0
25/05:30am 5.4 4.2 4.5 94 0.4 CALM 0 6 0 3 - - 0.0
25/05:00am 5.4 4.2 4.4 93 0.4 CALM 0 0 0 0 - - 0.0
25/04:30am 5.1 3.4 4.1 93 0.4 ESE 2 6 1 3 - - 0.0
25/04:00am 4.8 2.6 3.6 92 0.5 WNW 4 7 2 4 - - 0.0
25/03:30am 5.5 4.2 4.2 91 0.6 CALM 0 6 0 3 - - 0.0
25/03:00am 5.9 3.5 4.4 90 0.7 ESE 6 9 3 5 - - 0.0
25/02:30am 6.7 5.6 4.9 88 0.8 CALM 0 0 0 0 - - 0.0
25/02:00am 8.1 7.2 6.2 88 0.9 CALM 0 0 0 0 - - 0.0
25/01:30am 8.9 8.2 6.9 87 0.9 CALM 0 0 0 0 - - 0.0
25/01:00am 9.3 8.6 7.1 86 1.0 CALM 0 0 0 0 - - 0.0
25/12:30am 9.2 8.1 6.8 85 1.1 W 2 6 1 3 - - 0.0
25/12:00am 9.9 9.2 7.0 82 1.4 CALM 0 0 0 0 - - 0.0
 
Date/Time
EDT
Temp
°C
App
Temp
°C
Dew
Point
Rel
Hum
%
Delta-T
°C
Wind Press
QNH
hPa
Press
MSL
hPa
Rain
since 9 am
mm
Dir
 
Spd
km/h
Gust
km/h
Spd
kts
Gust
kts
24/11:30pm 10.7 10.1 7.6 81 1.5 CALM 0 0 0 0 - - 0.0
24/11:00pm 10.9 9.6 7.8 81 1.5 SE 4 7 2 4 - - 0.0
24/10:30pm 11.1 10.5 7.4 78 1.8 CALM 0 0 0 0 - - 0.0
24/10:00pm 11.3 10.7 7.6 78 1.8 CALM 0 0 0 0 - - 0.0
24/09:30pm 11.4 9.7 7.5 77 1.9 N 6 7 3 4 - - 0.0
24/09:00pm 11.4 9.7 7.5 77 1.9 NNE 6 9 3 5 - - 0.0
24/08:30pm 11.4 9.4 7.3 76 2.0 NNE 7 9 4 5 - - 0.0
24/08:00pm 11.1 8.7 7.0 76 2.0 NNE 9 11 5 6 - - 0.0
24/07:30pm 11.3 8.8 6.4 72 2.3 NNE 9 13 5 7 - - 0.0
24/07:00pm 12.1 8.8 6.6 69 2.6 NNE 13 20 7 11 - - 0.0
24/06:30pm 12.8 9.1 6.4 65 3.1 NNE 15 22 8 12 - - 0.0
24/06:00pm 13.8 10.2 6.9 63 3.4 NE 15 20 8 11 - - 0.0
24/05:30pm 14.6 10.7 7.2 61 3.7 NNE 17 24 9 13 - - 0.0
24/05:00pm 15.5 11.1 7.5 59 4.0 NNE 20 28 11 15 - - 0.0
24/04:30pm 15.8 12.3 7.0 56 4.4 NNE 15 26 8 14 - - 0.0
24/04:00pm 15.9 13.8 5.8 51 4.9 WNW 6 9 3 5 - - 0.0
24/03:30pm 16.5 14.8 6.1 50 5.1 NNE 4 9 2 5 - - 0.0
24/03:00pm 15.9 13.7 6.3 53 4.7 NNW 7 15 4 8 - - 0.0
24/02:30pm 15.5 13.1 5.4 51 4.9 SE 7 11 4 6 - - 0.0
24/02:00pm 15.2 12.2 6.0 54 4.5 NNE 11 19 6 10 - - 0.0
24/01:30pm 15.1 11.6 5.6 53 4.6 N 13 19 7 10 - - 0.0
24/01:00pm 14.9 11.5 5.7 54 4.4 NNE 13 20 7 11 - - 0.0

Other Formats:

Comma delimited format used in spreadsheet applications
http://www.bom.gov.au/fwo/IDT60801/IDT60801.95974.axf

JavaScript Object Notation format (JSON) in row-major order
http://www.bom.gov.au/fwo/IDT60801/IDT60801.95974.json